Time;durP1;ratioP1;P1;durP2;ratioP2;P2;SDS_P1;SDS_P2;PMS_P1;PMS_P2;Temp;Humidity;BMP_temperature;BMP_pressure;BME280_temperature;BME280_humidity;BME280_pressure;Samples;Min_cycle;Max_cycle;Signal;HPM_P1;HPM_P2
2021/11/16 00:00:16;;;;;;;1999.90;999.90;;;;;;;1.76;57.91;102193.47;4915174;28;96764;-72
2021/11/16 00:02:44;;;;;;;1999.90;999.90;;;;;;;1.78;58.34;102191.00;4934929;28;98098;-72
2021/11/16 00:05:13;;;;;;;1999.90;999.90;;;;;;;1.78;58.42;102186.63;4908748;28;100895;-72
2021/11/16 00:07:41;;;;;;;1999.90;999.90;;;;;;;1.80;57.96;102192.94;4933092;28;98958;-71
2021/11/16 00:10:10;;;;;;;1999.90;999.90;;;;;;;1.79;58.01;102182.31;4925600;28;97488;-72
2021/11/16 00:12:38;;;;;;;1999.90;999.90;;;;;;;1.78;58.05;102178.75;4913320;28;97170;-72
2021/11/16 00:15:08;;;;;;;1999.90;999.90;;;;;;;1.79;58.16;102175.38;4931769;28;97791;-72
2021/11/16 00:17:38;;;;;;;1999.90;999.90;;;;;;;1.79;58.27;102172.75;4929894;28;98979;-73
2021/11/16 00:20:10;;;;;;;1999.90;999.90;;;;;;;1.80;58.26;102160.50;4914438;28;97158;-72
2021/11/16 00:22:40;;;;;;;1999.90;999.90;;;;;;;1.80;57.99;102164.06;4936896;28;97945;-72
2021/11/16 00:25:19;;;;;;;1999.90;999.90;;;;;;;1.81;58.00;102165.91;4931685;28;98743;-71
2021/11/16 00:27:48;;;;;;;1999.90;999.90;;;;;;;1.80;58.15;102161.44;4926765;28;97793;-72
2021/11/16 00:30:17;;;;;;;1999.90;999.90;;;;;;;1.82;58.30;102165.09;4901798;28;98029;-72
2021/11/16 00:32:47;;;;;;;1999.90;999.90;;;;;;;1.82;57.99;102167.72;4935390;28;98421;-70
2021/11/16 00:35:15;;;;;;;1999.90;999.90;;;;;;;1.83;58.08;102166.94;4931616;28;98834;-69
2021/11/16 00:37:44;;;;;;;1999.90;999.90;;;;;;;1.85;58.27;102161.81;4916542;28;99144;-73
2021/11/16 00:40:16;;;;;;;1999.90;999.90;;;;;;;1.86;57.79;102161.91;4916874;28;97072;-73
2021/11/16 00:42:45;;;;;;;1999.90;999.90;;;;;;;1.88;57.82;102160.34;4916521;28;96766;-73
2021/11/16 00:45:13;;;;;;;1999.90;999.90;;;;;;;1.89;57.94;102156.91;4914788;28;99356;-72
2021/11/16 00:47:42;;;;;;;1999.90;999.90;;;;;;;1.91;57.56;102164.88;4930963;28;96844;-74
2021/11/16 00:50:15;;;;;;;1999.90;999.90;;;;;;;1.91;58.04;102163.19;4934652;28;97818;-73
2021/11/16 00:52:44;;;;;;;1999.90;999.90;;;;;;;1.92;58.37;102157.16;4913435;28;96923;-72
2021/11/16 00:55:13;;;;;;;1999.90;999.90;;;;;;;1.93;58.10;102158.03;4911395;28;99574;-74
2021/11/16 00:57:41;;;;;;;1999.90;999.90;;;;;;;1.92;57.86;102159.78;4926880;28;99069;-72
2021/11/16 01:00:12;;;;;;;1999.90;999.90;;;;;;;1.93;58.14;102156.34;4913146;28;96843;-71
2021/11/16 01:02:40;;;;;;;1999.90;999.90;;;;;;;1.93;57.98;102153.72;4930691;28;97869;-73
2021/11/16 01:05:12;;;;;;;1999.90;999.90;;;;;;;1.94;57.87;102155.56;4905538;28;97888;-71
2021/11/16 01:07:41;;;;;;;1999.90;999.90;;;;;;;1.93;57.84;102143.22;4911538;28;99369;-72
2021/11/16 01:10:10;;;;;;;1999.90;999.90;;;;;;;1.94;57.57;102147.69;4931491;28;97883;-71
2021/11/16 01:12:38;;;;;;;1999.90;999.90;;;;;;;1.93;57.79;102145.84;4915776;28;97951;-71
2021/11/16 01:15:09;;;;;;;1999.90;999.90;;;;;;;1.94;58.66;102133.66;4910414;28;100822;-71
2021/11/16 01:17:37;;;;;;;1999.90;999.90;;;;;;;1.94;58.59;102134.56;4918207;28;99559;-69
2021/11/16 01:20:07;;;;;;;1999.90;999.90;;;;;;;1.93;57.75;102129.16;4914646;28;97690;-71
2021/11/16 01:22:37;;;;;;;1999.90;999.90;;;;;;;1.94;58.52;102128.41;4917746;28;97281;-71
2021/11/16 01:25:06;;;;;;;1999.90;999.90;;;;;;;1.93;57.98;102132.72;4911345;28;100905;-71
2021/11/16 01:27:36;;;;;;;1999.90;999.90;;;;;;;1.92;58.30;102132.59;4915415;28;100610;-71
2021/11/16 01:30:08;;;;;;;1999.90;999.90;;;;;;;1.93;58.59;102134.41;4934061;28;97544;-71
2021/11/16 01:32:39;;;;;;;1999.90;999.90;;;;;;;1.93;58.39;102123.91;4937304;28;97117;-70
2021/11/16 01:35:08;;;;;;;1999.90;999.90;;;;;;;1.91;58.24;102126.44;4917645;28;100665;-71
2021/11/16 01:37:39;;;;;;;1999.90;999.90;;;;;;;1.91;57.89;102123.81;4925286;28;98133;-70
2021/11/16 01:40:11;;;;;;;1999.90;999.90;;;;;;;1.90;57.84;102114.13;4916476;28;97249;-71
2021/11/16 01:42:43;;;;;;;1999.90;999.90;;;;;;;1.89;58.48;102114.91;4910265;28;97150;-70
2021/11/16 01:45:12;;;;;;;1999.90;999.90;;;;;;;1.88;58.03;102115.72;4933901;28;98057;-72
2021/11/16 01:47:41;;;;;;;1999.90;999.90;;;;;;;1.86;58.33;102117.31;4912487;28;99425;-71
2021/11/16 01:50:10;;;;;;;1999.90;999.90;;;;;;;1.84;58.45;102110.09;4927219;28;96838;-71
2021/11/16 01:52:40;;;;;;;1999.90;999.90;;;;;;;1.81;58.19;102107.25;4909901;28;96788;-70
2021/11/16 01:55:10;;;;;;;1999.90;999.90;;;;;;;1.80;58.25;102111.56;4924640;28;99432;-71
2021/11/16 01:57:38;;;;;;;1999.90;999.90;;;;;;;1.80;58.13;102108.03;4908801;28;97932;-72
2021/11/16 02:00:10;;;;;;;1999.90;999.90;;;;;;;1.79;58.74;102099.25;4910003;28;96834;-70
2021/11/16 02:02:38;;;;;;;1999.90;999.90;;;;;;;1.79;58.34;102104.50;4930091;28;96992;-71
2021/11/16 02:05:07;;;;;;;1999.90;999.90;;;;;;;1.77;58.68;102095.59;4927948;28;97816;-71
2021/11/16 02:07:36;;;;;;;1999.90;999.90;;;;;;;1.75;58.90;102091.94;4932445;28;97729;-70
2021/11/16 02:10:06;;;;;;;1999.90;999.90;;;;;;;1.77;59.01;102099.94;4914719;28;97000;-71
2021/11/16 02:12:35;;;;;;;1999.90;999.90;;;;;;;1.80;58.40;102102.78;4925382;28;97688;-70
2021/11/16 02:15:05;;;;;;;1999.90;999.90;;;;;;;1.78;58.22;102089.53;4927789;28;97896;-73
2021/11/16 02:17:34;;;;;;;1999.90;999.90;;;;;;;1.80;58.80;102094.91;4915912;28;97706;-69
2021/11/16 02:20:02;;;;;;;1999.90;999.90;;;;;;;1.79;58.68;102086.13;4931028;28;97161;-73
2021/11/16 02:22:32;;;;;;;1999.90;999.90;;;;;;;1.80;58.94;102093.19;4929542;28;98505;-72
2021/11/16 02:25:00;;;;;;;1999.90;999.90;;;;;;;1.79;58.42;102083.50;4909002;28;99487;-73
2021/11/16 02:27:28;;;;;;;1999.90;999.90;;;;;;;1.79;58.47;102083.50;4929278;28;98047;-73
2021/11/16 02:29:57;;;;;;;1999.90;999.90;;;;;;;1.79;58.79;102077.34;4913398;28;97939;-72
2021/11/16 02:32:26;;;;;;;1999.90;999.90;;;;;;;1.77;58.44;102069.34;4935558;28;98670;-72
2021/11/16 02:34:54;;;;;;;1999.90;999.90;;;;;;;1.78;58.69;102075.53;4927920;28;98085;-72
2021/11/16 02:37:23;;;;;;;1999.90;999.90;;;;;;;1.78;58.72;102078.16;4935251;28;99132;-72
2021/11/16 02:39:52;;;;;;;1999.90;999.90;;;;;;;1.76;58.37;102059.63;4924101;28;98034;-71
2021/11/16 02:42:21;;;;;;;1999.90;999.90;;;;;;;1.75;58.96;102063.06;4927714;28;97725;-72
2021/11/16 02:44:49;;;;;;;1999.90;999.90;;;;;;;1.76;58.67;102062.25;4931174;28;97095;-73
2021/11/16 02:47:17;;;;;;;1999.90;999.90;;;;;;;1.76;57.90;102046.53;4927397;28;97280;-73
2021/11/16 02:49:45;;;;;;;1999.90;999.90;;;;;;;1.73;58.56;102059.41;4918850;28;97692;-72
2021/11/16 02:52:14;;;;;;;1999.90;999.90;;;;;;;1.73;58.55;102054.16;4927340;28;98038;-71
2021/11/16 02:54:42;;;;;;;1999.90;999.90;;;;;;;1.73;58.34;102051.53;4909805;28;99713;-73
2021/11/16 02:57:13;;;;;;;1999.90;999.90;;;;;;;1.72;59.21;102054.97;4910969;28;99772;-72
2021/11/16 02:59:42;;;;;;;1999.90;999.90;;;;;;;1.71;58.72;102047.88;4913600;28;96812;-73
2021/11/16 03:02:11;;;;;;;1999.90;999.90;;;;;;;1.72;58.85;102040.94;4904834;28;98547;-73
2021/11/16 03:04:44;;;;;;;1999.90;999.90;;;;;;;1.72;58.47;102039.25;4907929;28;99370;-73
2021/11/16 03:07:13;;;;;;;1999.90;999.90;;;;;;;1.72;58.94;102034.00;4905790;28;98840;-73
2021/11/16 03:09:49;;;;;;;1999.90;999.90;;;;;;;1.72;58.83;102034.00;4913191;28;97158;-73
2021/11/16 03:12:19;;;;;;;1999.90;999.90;;;;;;;1.73;58.81;102032.25;4921577;28;96869;-73
2021/11/16 03:14:47;;;;;;;1999.90;999.90;;;;;;;1.74;58.25;102034.09;4904926;28;98927;-72
2021/11/16 03:17:15;;;;;;;1999.90;999.90;;;;;;;1.71;58.40;102025.97;4915432;28;99883;-71
2021/11/16 03:19:43;;;;;;;1999.90;999.90;;;;;;;1.73;58.90;102029.63;4925423;28;97732;-71
2021/11/16 03:22:12;;;;;;;1999.90;999.90;;;;;;;1.73;58.45;102027.00;4936034;28;97220;-74
2021/11/16 03:24:41;;;;;;;1999.90;999.90;;;;;;;1.74;58.56;102032.41;4927492;28;97749;-71
2021/11/16 03:27:12;;;;;;;1999.90;999.90;;;;;;;1.74;58.22;102034.09;4927305;28;99334;-72
2021/11/16 03:29:45;;;;;;;1999.90;999.90;;;;;;;1.73;58.87;102037.50;4931587;28;98069;-72
2021/11/16 03:32:16;;;;;;;1999.90;999.90;;;;;;;1.72;59.03;102039.25;4921983;28;97034;-72
2021/11/16 03:34:47;;;;;;;1999.90;999.90;;;;;;;1.71;59.03;102032.16;4926213;28;97716;-72
2021/11/16 03:37:15;;;;;;;1999.90;999.90;;;;;;;1.72;58.91;102026.13;4906906;28;99442;-72
2021/11/16 03:39:44;;;;;;;1999.90;999.90;;;;;;;1.71;58.78;102033.84;4930602;28;97059;-71
2021/11/16 03:42:13;;;;;;;1999.90;999.90;;;;;;;1.71;58.78;102032.16;4924537;28;96976;-72
2021/11/16 03:44:43;;;;;;;1999.90;999.90;;;;;;;1.71;58.26;102029.53;4930057;28;97043;-72
2021/11/16 03:47:11;;;;;;;1999.90;999.90;;;;;;;1.72;58.88;102030.44;4933599;28;97754;-72
2021/11/16 03:49:40;;;;;;;1999.90;999.90;;;;;;;1.72;58.84;102034.00;4930304;28;97851;-70
2021/11/16 03:52:08;;;;;;;1999.90;999.90;;;;;;;1.73;58.86;102020.06;4914242;28;97607;-72
2021/11/16 03:54:36;;;;;;;1999.90;999.90;;;;;;;1.73;58.94;102019.13;4937504;28;97761;-72
2021/11/16 03:57:05;;;;;;;1999.90;999.90;;;;;;;1.74;58.90;102026.22;4916170;28;99764;-72
2021/11/16 03:59:33;;;;;;;1999.90;999.90;;;;;;;1.73;58.87;102022.69;4933433;28;97414;-71
2021/11/16 04:02:03;;;;;;;1999.90;999.90;;;;;;;1.73;58.13;102025.31;4931472;28;97700;-72
2021/11/16 04:04:33;;;;;;;1999.90;999.90;;;;;;;1.73;58.72;102021.75;4921073;28;99508;-71
2021/11/16 04:07:01;;;;;;;1999.90;999.90;;;;;;;1.73;58.61;102029.63;4912485;28;99965;-72
2021/11/16 04:09:29;;;;;;;1999.90;999.90;;;;;;;1.72;58.60;102028.75;4916683;28;97439;-72
2021/11/16 04:11:57;;;;;;;1999.90;999.90;;;;;;;1.73;58.44;102027.00;4934671;28;97601;-70
2021/11/16 04:14:25;;;;;;;1999.90;999.90;;;;;;;1.74;58.74;102019.28;4909297;28;99480;-72
2021/11/16 04:16:54;;;;;;;1999.90;999.90;;;;;;;1.74;58.96;102020.97;4934715;28;97327;-72
2021/11/16 04:19:24;;;;;;;1999.90;999.90;;;;;;;1.73;58.60;102024.38;4930695;28;97913;-73
2021/11/16 04:21:52;;;;;;;1999.90;999.90;;;;;;;1.73;59.12;102027.00;4911452;28;97294;-73
2021/11/16 04:24:20;;;;;;;1999.90;999.90;;;;;;;1.72;59.12;102023.50;4931956;28;97824;-73
2021/11/16 04:26:48;;;;;;;1999.90;999.90;;;;;;;1.71;58.84;102007.59;4915497;28;99779;-72
2021/11/16 04:29:17;;;;;;;1999.90;999.90;;;;;;;1.69;58.62;102007.50;4931294;28;97934;-73
2021/11/16 04:31:45;;;;;;;1999.90;999.90;;;;;;;1.69;58.95;102010.13;4914452;28;97305;-73
2021/11/16 04:34:14;;;;;;;1999.90;999.90;;;;;;;1.69;58.78;102011.84;4929082;28;97468;-71
2021/11/16 04:36:44;;;;;;;1999.90;999.90;;;;;;;1.70;58.60;102009.34;4929828;28;99804;-71
2021/11/16 04:39:12;;;;;;;1999.90;999.90;;;;;;;1.70;58.60;102004.09;4916023;28;97733;-74
2021/11/16 04:41:41;;;;;;;1999.90;999.90;;;;;;;1.70;59.21;101997.91;4916285;28;97754;-72
2021/11/16 04:44:10;;;;;;;1999.90;999.90;;;;;;;1.70;59.11;101993.59;4916124;28;99343;-71
2021/11/16 04:46:39;;;;;;;1999.90;999.90;;;;;;;1.71;58.53;102003.28;4930248;28;99096;-69
2021/11/16 04:49:11;;;;;;;1999.90;999.90;;;;;;;1.70;58.40;101998.84;4932357;28;96957;-69
2021/11/16 04:54:44;;;;;;;1999.90;999.90;;;;;;;1.68;58.56;101997.81;4913571;28;100570;-71
2021/11/16 05:02:41;;;;;;;1999.90;999.90;;;;;;;1.68;58.69;102007.38;4901705;28;97585;-72
2021/11/16 05:05:12;;;;;;;1999.90;999.90;;;;;;;1.68;59.02;102010.94;4925046;28;98693;-70
2021/11/16 05:07:45;;;;;;;1999.90;999.90;;;;;;;1.65;59.18;102007.16;4926972;28;98936;-70
2021/11/16 05:10:15;;;;;;;1999.90;999.90;;;;;;;1.64;59.26;102003.63;4914398;28;97967;-71
2021/11/16 05:12:43;;;;;;;1999.90;999.90;;;;;;;1.64;59.03;102008.88;4923985;28;97738;-71
2021/11/16 05:15:15;;;;;;;1999.90;999.90;;;;;;;1.62;58.95;101999.03;4931799;28;98075;-69
2021/11/16 05:17:46;;;;;;;1999.90;999.90;;;;;;;1.61;58.81;102003.41;4934383;28;97604;-69
2021/11/16 05:20:15;;;;;;;1999.90;999.90;;;;;;;1.61;58.85;102003.41;4932035;28;97700;-71
2021/11/16 05:22:43;;;;;;;1999.90;999.90;;;;;;;1.59;58.62;101991.88;4913426;28;98576;-70
2021/11/16 05:25:12;;;;;;;1999.90;999.90;;;;;;;1.59;58.62;101997.13;4909908;28;99874;-71
2021/11/16 05:27:41;;;;;;;1999.90;999.90;;;;;;;1.59;59.10;101998.81;4930579;28;97916;-72
2021/11/16 05:30:12;;;;;;;1999.90;999.90;;;;;;;1.57;58.78;101995.16;4915727;28;97472;-72
2021/11/16 05:32:41;;;;;;;1999.90;999.90;;;;;;;1.58;58.86;102003.13;4910518;28;96824;-71
2021/11/16 05:35:11;;;;;;;1999.90;999.90;;;;;;;1.56;59.41;102004.72;4922930;28;99436;-70
2021/11/16 05:37:39;;;;;;;1999.90;999.90;;;;;;;1.55;58.82;102000.28;4905767;28;99792;-71
2021/11/16 05:40:09;;;;;;;1999.90;999.90;;;;;;;1.56;58.96;101998.59;4908049;28;97860;-71
2021/11/16 05:42:37;;;;;;;1999.90;999.90;;;;;;;1.53;59.20;101996.63;4906308;28;97120;-72
2021/11/16 05:45:08;;;;;;;1999.90;999.90;;;;;;;1.53;58.85;101998.34;4894962;28;101949;-71
2021/11/16 05:47:38;;;;;;;1999.90;999.90;;;;;;;1.54;59.19;102001.09;4927965;28;98063;-67
2021/11/16 05:50:08;;;;;;;1999.90;999.90;;;;;;;1.54;58.77;102001.09;4928466;28;97563;-66
2021/11/16 05:52:36;;;;;;;1999.90;999.90;;;;;;;1.51;58.67;101995.59;4908646;28;97866;-71
2021/11/16 05:55:07;;;;;;;1999.90;999.90;;;;;;;1.51;59.36;101994.69;4927219;28;98765;-73
2021/11/16 05:57:36;;;;;;;1999.90;999.90;;;;;;;1.50;59.45;101991.16;4928234;28;99919;-71
2021/11/16 06:00:09;;;;;;;1999.90;999.90;;;;;;;1.49;59.33;101986.69;4913056;28;97390;-72
2021/11/16 06:02:37;;;;;;;1999.90;999.90;;;;;;;1.48;59.58;101995.38;4906813;28;96859;-71
2021/11/16 06:05:06;;;;;;;1999.90;999.90;;;;;;;1.49;59.38;101996.31;4910313;28;101080;-72
2021/11/16 06:07:35;;;;;;;1999.90;999.90;;;;;;;1.49;59.39;101989.31;4923906;28;97720;-72
2021/11/16 06:10:04;;;;;;;1999.90;999.90;;;;;;;1.50;59.54;101978.06;4931698;28;97701;-72
2021/11/16 06:12:32;;;;;;;1999.90;999.90;;;;;;;1.51;58.86;101987.72;4925618;28;98044;-71
2021/11/16 06:15:00;;;;;;;1999.90;999.90;;;;;;;1.51;58.99;101984.19;4927695;28;97664;-73
2021/11/16 06:17:29;;;;;;;1999.90;999.90;;;;;;;1.51;59.50;101989.44;4926421;28;97092;-71
2021/11/16 06:19:58;;;;;;;1999.90;999.90;;;;;;;1.50;58.72;101980.69;4924150;28;97205;-72
2021/11/16 06:22:26;;;;;;;1999.90;999.90;;;;;;;1.50;59.58;101993.78;4906767;28;97637;-71
2021/11/16 06:24:54;;;;;;;1999.90;999.90;;;;;;;1.49;58.77;101991.94;4921479;28;97694;-73
2021/11/16 06:27:22;;;;;;;1999.90;999.90;;;;;;;1.47;59.36;101990.03;4908260;28;99816;-72
2021/11/16 06:29:50;;;;;;;1999.90;999.90;;;;;;;1.43;59.58;101983.63;4922352;28;97707;-73
2021/11/16 06:32:19;;;;;;;1999.90;999.90;;;;;;;1.40;59.37;101988.63;4906646;28;97205;-72
2021/11/16 06:34:48;;;;;;;1999.90;999.90;;;;;;;1.39;59.32;101993.75;4906770;28;99830;-72
2021/11/16 06:37:17;;;;;;;1999.90;999.90;;;;;;;1.40;59.66;101991.25;4921361;28;98722;-72
2021/11/16 06:39:45;;;;;;;1999.90;999.90;;;;;;;1.42;59.22;101999.22;4925990;28;97908;-71
2021/11/16 06:42:14;;;;;;;1999.90;999.90;;;;;;;1.40;59.39;101999.13;4923781;28;97406;-72
2021/11/16 06:44:43;;;;;;;1999.90;999.90;;;;;;;1.35;59.83;101992.59;4926943;28;98804;-72
2021/11/16 06:47:13;;;;;;;1999.90;999.90;;;;;;;1.34;59.55;102001.28;4928992;28;97330;-73
2021/11/16 06:49:42;;;;;;;1999.90;999.90;;;;;;;1.35;59.59;101989.97;4914191;28;98021;-72
2021/11/16 06:52:11;;;;;;;1999.90;999.90;;;;;;;1.36;59.74;101991.78;4928883;28;97796;-72
2021/11/16 06:54:39;;;;;;;1999.90;999.90;;;;;;;1.39;59.58;101996.38;4931321;28;98909;-72
2021/11/16 06:57:08;;;;;;;1999.90;999.90;;;;;;;1.38;59.50;101998.06;4912873;28;98000;-71
2021/11/16 06:59:36;;;;;;;1999.90;999.90;;;;;;;1.37;59.07;102005.84;4920554;28;96680;-71
2021/11/16 07:02:05;;;;;;;1999.90;999.90;;;;;;;1.34;60.13;101989.88;4930778;28;98350;-73
2021/11/16 07:04:36;;;;;;;1999.90;999.90;;;;;;;1.33;60.05;101996.81;4907302;28;100404;-72
2021/11/16 07:07:05;;;;;;;1999.90;999.90;;;;;;;1.35;59.86;101999.56;4931821;28;97729;-73
2021/11/16 07:09:36;;;;;;;1999.90;999.90;;;;;;;1.32;59.59;101997.63;4933279;28;98151;-72
2021/11/16 07:12:11;;;;;;;1999.90;999.90;;;;;;;1.34;59.31;102000.38;4932021;28;97224;-70
2021/11/16 07:14:39;;;;;;;1999.90;999.90;;;;;;;1.32;60.11;102000.25;4928582;28;98879;-72
2021/11/16 07:17:09;;;;;;;1999.90;999.90;;;;;;;1.32;59.37;102007.19;4912153;28;99359;-72
2021/11/16 07:19:39;;;;;;;1999.90;999.90;;;;;;;1.30;60.18;102004.47;4920321;28;97498;-71
2021/11/16 07:22:10;;;;;;;1999.90;999.90;;;;;;;1.32;59.89;102010.75;4937635;28;98446;-71
2021/11/16 07:24:47;;;;;;;1999.90;999.90;;;;;;;1.31;59.79;102006.28;4915924;28;98586;-73
2021/11/16 07:27:17;;;;;;;1999.90;999.90;;;;;;;1.35;59.89;102004.78;4920697;28;99682;-73
2021/11/16 07:29:48;;;;;;;1999.90;999.90;;;;;;;1.37;59.48;102008.44;4932628;28;97994;-72
2021/11/16 07:32:18;;;;;;;1999.90;999.90;;;;;;;1.35;60.11;102010.03;4935449;28;97933;-69
2021/11/16 07:34:46;;;;;;;1999.90;999.90;;;;;;;1.37;59.51;102011.06;4931983;28;100712;-70
2021/11/16 07:37:17;;;;;;;1999.90;999.90;;;;;;;1.39;59.48;102017.34;4917056;28;99294;-72
2021/11/16 07:39:50;;;;;;;1999.90;999.90;;;;;;;1.39;59.77;102015.66;4936431;28;97747;-70
2021/11/16 07:42:20;;;;;;;1999.90;999.90;;;;;;;1.42;59.23;102017.56;4931497;28;97950;-72
2021/11/16 07:45:07;;;;;;;1999.90;999.90;;;;;;;1.42;59.40;102026.38;4933126;28;97722;-73
2021/11/16 07:47:42;;;;;;;1999.90;999.90;;;;;;;1.43;59.92;102022.97;4919395;28;101492;-70
2021/11/16 07:50:13;;;;;;;1999.90;999.90;;;;;;;1.44;58.96;102019.53;4918411;28;97319;-73
2021/11/16 07:52:44;;;;;;;1999.90;999.90;;;;;;;1.47;59.75;102018.88;4936494;28;97295;-70
2021/11/16 07:55:21;;;;;;;1999.90;999.90;;;;;;;1.47;59.62;102013.63;4913567;28;97697;-73
2021/11/16 07:57:50;;;;;;;1999.90;999.90;;;;;;;1.49;59.66;102004.16;4921479;28;97926;-72
2021/11/16 08:00:23;;;;;;;1999.90;999.90;;;;;;;1.50;59.41;101993.78;4911739;28;96777;-71
2021/11/16 08:02:57;;;;;;;1999.90;999.90;;;;;;;1.52;59.45;101994.81;4933564;28;98321;-70
2021/11/16 08:05:40;;;;;;;1999.90;999.90;;;;;;;1.53;59.53;101987.84;4937650;28;99148;-72
2021/11/16 08:08:19;;;;;;;1999.90;999.90;;;;;;;1.52;59.29;101986.03;4920431;28;99467;-73
2021/11/16 08:10:54;;;;;;;1999.90;999.90;;;;;;;1.53;59.63;101979.97;4932939;28;97819;-73
2021/11/16 08:13:29;;;;;;;1999.90;999.90;;;;;;;1.55;59.24;101981.94;4916096;28;97208;-71
2021/11/16 08:16:06;;;;;;;1999.90;999.90;;;;;;;1.54;59.30;101973.94;4933059;28;97921;-72
2021/11/16 08:18:43;;;;;;;1999.90;999.90;;;;;;;1.57;59.33;101972.47;4913902;28;100826;-72
2021/11/16 08:21:12;;;;;;;1999.90;999.90;;;;;;;1.58;59.14;101971.66;4922779;28;97060;-70
2021/11/16 08:23:47;;;;;;;1999.90;999.90;;;;;;;1.59;59.17;101963.00;4916571;28;97552;-71
2021/11/16 08:26:17;;;;;;;1999.90;999.90;;;;;;;1.59;59.44;101970.88;4934571;28;97686;-71
2021/11/16 08:28:46;;;;;;;1999.90;999.90;;;;;;;1.60;58.99;101966.56;4928408;28;97885;-70
2021/11/16 08:31:15;;;;;;;1999.90;999.90;;;;;;;1.59;59.71;101972.59;4914883;28;98774;-69
2021/11/16 08:33:43;;;;;;;1999.90;999.90;;;;;;;1.58;59.74;101965.53;4935883;28;97666;-70
2021/11/16 08:36:12;;;;;;;1999.90;999.90;;;;;;;1.57;60.00;101969.84;4938426;28;98757;-70
2021/11/16 08:38:40;;;;;;;1999.90;999.90;;;;;;;1.60;59.81;101970.06;4930434;28;97042;-71
2021/11/16 08:41:08;;;;;;;1999.90;999.90;;;;;;;1.61;59.85;101966.66;4934889;28;96829;-69
2021/11/16 08:43:38;;;;;;;1999.90;999.90;;;;;;;1.62;59.14;101962.31;4928021;28;97449;-70
2021/11/16 08:46:09;;;;;;;1999.90;999.90;;;;;;;1.63;58.89;101958.91;4933547;28;97562;-70
2021/11/16 08:48:46;;;;;;;1999.90;999.90;;;;;;;1.63;59.36;101953.66;4930218;28;97644;-70
2021/11/16 08:51:17;;;;;;;1999.90;999.90;;;;;;;1.66;59.15;101948.63;4912945;28;97917;-70
2021/11/16 08:53:45;;;;;;;1999.90;999.90;;;;;;;1.66;59.19;101948.63;4934876;28;97198;-70
2021/11/16 08:56:15;;;;;;;1999.90;999.90;;;;;;;1.66;59.42;101949.56;4937623;28;97279;-70
2021/11/16 08:59:11;;;;;;;1999.90;999.90;;;;;;;1.66;59.73;101949.56;4934756;28;97951;-71
2021/11/16 09:01:39;;;;;;;1999.90;999.90;;;;;;;1.70;59.56;101945.44;4896769;28;97502;-70
2021/11/16 09:04:08;;;;;;;1999.90;999.90;;;;;;;1.71;59.11;101953.44;4919240;28;96843;-71
2021/11/16 09:06:39;;;;;;;1999.90;999.90;;;;;;;1.73;59.44;101940.41;4915489;28;98031;-70
2021/11/16 09:09:11;;;;;;;1999.90;999.90;;;;;;;1.75;59.38;101952.88;4895520;28;100301;-71
2021/11/16 09:11:40;;;;;;;1999.90;999.90;;;;;;;1.77;59.85;101947.72;4929725;28;98251;-71
2021/11/16 09:14:14;;;;;;;1999.90;999.90;;;;;;;1.76;59.78;101948.53;4930090;28;97148;-69
2021/11/16 09:16:42;;;;;;;1999.90;999.90;;;;;;;1.79;59.06;101956.63;4907981;28;100615;-70
2021/11/16 09:19:26;;;;;;;1999.90;999.90;;;;;;;1.77;59.06;101955.59;4914479;28;99687;-69
2021/11/16 09:21:54;;;;;;;1999.90;999.90;;;;;;;1.78;59.60;101953.09;4911218;28;97223;-71
2021/11/16 09:24:30;;;;;;;1999.90;999.90;;;;;;;1.78;59.65;101953.09;4933205;28;97678;-71
2021/11/16 09:27:11;;;;;;;1999.90;999.90;;;;;;;1.79;60.08;101949.69;4934011;28;97609;-70
2021/11/16 09:29:42;;;;;;;1999.90;999.90;;;;;;;1.81;60.09;101950.72;4928652;28;97978;-71
2021/11/16 09:32:11;;;;;;;1999.90;999.90;;;;;;;1.81;60.15;101939.28;4933780;28;97344;-70
2021/11/16 09:34:41;;;;;;;1999.90;999.90;;;;;;;1.79;59.77;101952.31;4934969;28;98552;-71
2021/11/16 09:37:13;;;;;;;1999.90;999.90;;;;;;;1.78;59.70;101944.31;4918926;28;99421;-69
2021/11/16 09:39:44;;;;;;;1999.90;999.90;;;;;;;1.81;59.38;101949.78;4938355;28;98791;-70
2021/11/16 09:42:24;;;;;;;1999.90;999.90;;;;;;;1.81;59.13;101958.59;4928433;28;97199;-72
2021/11/16 09:45:02;;;;;;;1999.90;999.90;;;;;;;1.84;59.03;101953.56;4935821;28;97023;-72
2021/11/16 09:47:34;;;;;;;1999.90;999.90;;;;;;;1.85;59.56;101943.97;4914901;28;99791;-70
2021/11/16 09:50:04;;;;;;;1999.90;999.90;;;;;;;1.85;59.35;101943.97;4930854;28;98926;-71
2021/11/16 09:52:34;;;;;;;1999.90;999.90;;;;;;;1.85;59.10;101944.88;4935176;28;96765;-71
2021/11/16 09:55:07;;;;;;;1999.90;999.90;;;;;;;1.85;59.40;101942.25;4909310;28;97966;-71
2021/11/16 09:57:40;;;;;;;1999.90;999.90;;;;;;;1.86;59.67;101944.09;4936776;28;97893;-70
2021/11/16 10:00:12;;;;;;;1999.90;999.90;;;;;;;1.85;59.79;101934.38;4925005;28;97706;-71
2021/11/16 10:02:44;;;;;;;1999.90;999.90;;;;;;;1.86;60.04;101943.16;4935172;28;97267;-70
2021/11/16 10:05:19;;;;;;;1999.90;999.90;;;;;;;1.87;59.22;101943.28;4924077;28;98049;-71
2021/11/16 10:07:47;;;;;;;1999.90;999.90;;;;;;;1.89;59.23;101943.41;4914750;28;98150;-71
2021/11/16 10:10:16;;;;;;;1999.90;999.90;;;;;;;1.87;59.74;101935.41;4913406;28;99823;-71
2021/11/16 10:12:46;;;;;;;1999.90;999.90;;;;;;;1.88;59.40;101932.00;4914878;28;97763;-70
2021/11/16 10:15:18;;;;;;;1999.90;999.90;;;;;;;1.87;59.80;101930.16;4911872;28;96900;-70
2021/11/16 10:17:47;;;;;;;1999.90;999.90;;;;;;;1.87;59.74;101935.41;4912163;28;98768;-71
2021/11/16 10:20:18;;;;;;;1999.90;999.90;;;;;;;1.88;59.22;101932.00;4920702;28;100547;-70
2021/11/16 10:23:08;;;;;;;1999.90;999.90;;;;;;;1.88;59.84;101937.25;4930753;28;97995;-70
2021/11/16 10:25:39;;;;;;;1999.90;999.90;;;;;;;1.89;59.69;101936.44;4931163;28;97774;-71
2021/11/16 10:28:09;;;;;;;1999.90;999.90;;;;;;;1.89;59.32;101936.44;4933342;28;97840;-70
2021/11/16 10:30:40;;;;;;;1999.90;999.90;;;;;;;1.90;59.73;101929.47;4913097;28;99795;-72
2021/11/16 10:33:11;;;;;;;1999.90;999.90;;;;;;;1.89;59.38;101931.19;4909496;28;96956;-71
2021/11/16 10:35:41;;;;;;;1999.90;999.90;;;;;;;1.91;59.75;101926.03;4930202;28;98016;-71
2021/11/16 10:38:11;;;;;;;1999.90;999.90;;;;;;;1.91;60.09;101926.03;4930991;28;99292;-71
2021/11/16 10:40:39;;;;;;;1999.90;999.90;;;;;;;1.92;59.54;101920.94;4913169;28;99611;-70
2021/11/16 10:43:11;;;;;;;1999.90;999.90;;;;;;;1.92;60.24;101917.38;4915386;28;97909;-71
2021/11/16 10:45:43;;;;;;;1999.90;999.90;;;;;;;1.92;59.83;101926.19;4914629;28;98007;-70
2021/11/16 10:48:14;;;;;;;1999.90;999.90;;;;;;;1.93;60.00;101920.13;4927721;28;99475;-71
2021/11/16 10:50:46;;;;;;;1999.90;999.90;;;;;;;1.94;60.37;101918.41;4908754;28;99810;-69
2021/11/16 10:53:15;;;;;;;1999.90;999.90;;;;;;;1.92;59.92;101917.38;4919895;28;96898;-69
2021/11/16 10:55:46;;;;;;;1999.90;999.90;;;;;;;1.92;59.67;101913.06;4931711;28;98256;-69
2021/11/16 10:58:15;;;;;;;1999.90;999.90;;;;;;;1.93;59.19;101908.69;4919930;28;99269;-69
2021/11/16 11:00:50;;;;;;;1999.90;999.90;;;;;;;1.94;59.92;101908.84;4910295;28;100829;-71
2021/11/16 11:03:27;;;;;;;1999.90;999.90;;;;;;;1.96;60.11;101903.69;4912605;28;98148;-71
2021/11/16 11:05:59;;;;;;;1999.90;999.90;;;;;;;2.28;59.65;101900.78;4930022;28;97142;-72
2021/11/16 11:08:31;;;;;;;1999.90;999.90;;;;;;;2.12;60.00;101901.41;4932277;28;97619;-71
2021/11/16 11:11:00;;;;;;;1999.90;999.90;;;;;;;2.10;59.92;101900.38;4931396;28;98148;-70
2021/11/16 11:13:29;;;;;;;1999.90;999.90;;;;;;;2.08;59.45;101889.75;4918970;28;98172;-72
2021/11/16 11:15:58;;;;;;;1999.90;999.90;;;;;;;2.07;59.42;101887.00;4923825;28;96853;-72